createdAt,value
2022-11-14T00:00:50.512Z,70.28
2022-11-14T00:06:21.931Z,72.70
2022-11-14T00:09:07.691Z,75.63
2022-11-14T00:11:53.489Z,70.32
2022-11-14T00:14:39.237Z,75.50
2022-11-14T00:17:25.033Z,50.88
2022-11-14T00:20:12.260Z,67.38
2022-11-14T00:22:58.039Z,67.05
2022-11-14T00:25:45.182Z,73.18
2022-11-14T00:28:33.312Z,70.20
2022-11-14T00:31:19.357Z,71.95
2022-11-14T00:34:05.399Z,54.13
2022-11-14T00:39:36.351Z,72.35
2022-11-14T00:42:22.263Z,78.95
2022-11-14T00:45:08.015Z,79.05
2022-11-14T00:47:53.896Z,79.35
2022-11-14T00:50:39.889Z,79.97
2022-11-14T00:53:25.783Z,81.15
2022-11-14T00:56:11.571Z,73.43
2022-11-14T00:58:57.460Z,74.13
2022-11-14T01:01:45.298Z,79.70
2022-11-14T01:04:31.548Z,71.60
2022-11-14T01:07:19.264Z,70.77
2022-11-14T01:10:06.038Z,76.63
2022-11-14T01:15:48.452Z,69.38
2022-11-14T01:18:34.255Z,73.18
2022-11-14T01:21:19.931Z,70.35
2022-11-14T01:24:06.140Z,57.53
2022-11-14T01:26:51.733Z,68.63
2022-11-14T01:29:37.310Z,79.20
2022-11-14T01:32:23.140Z,77.15
2022-11-14T01:35:08.787Z,73.75
2022-11-14T01:37:54.711Z,80.93
2022-11-14T01:40:45.243Z,57.45
2022-11-14T01:43:33.993Z,76.00
2022-11-14T01:46:25.173Z,78.80
2022-11-14T01:49:17.733Z,75.07
2022-11-14T01:52:07.274Z,74.82
2022-11-14T01:54:55.827Z,75.95
2022-11-14T01:57:46.093Z,76.85
2022-11-14T02:00:34.399Z,78.93
2022-11-14T02:03:20.348Z,79.88
2022-11-14T02:06:08.445Z,70.20
2022-11-14T02:08:55.447Z,79.20
2022-11-14T02:11:46.170Z,78.32
2022-11-14T02:14:37.924Z,75.35
2022-11-14T02:17:30.437Z,73.25
2022-11-14T02:20:24.071Z,73.07
2022-11-14T02:23:11.824Z,68.93
2022-11-14T02:25:58.055Z,77.50
2022-11-14T02:28:44.345Z,72.80
2022-11-14T02:31:29.975Z,69.88
2022-11-14T02:34:20.379Z,66.50
2022-11-14T02:37:06.530Z,67.65
2022-11-14T02:39:52.231Z,76.78
2022-11-14T02:42:37.949Z,69.82
2022-11-14T02:45:24.186Z,71.45
2022-11-14T02:48:09.839Z,67.55
2022-11-14T02:50:57.773Z,66.50
2022-11-14T02:53:43.045Z,71.70
2022-11-14T02:56:30.943Z,59.63
2022-11-14T02:59:16.270Z,72.22
2022-11-14T03:02:01.974Z,67.57
2022-11-14T03:04:47.502Z,68.95
2022-11-14T03:07:35.920Z,74.82
2022-11-14T03:10:23.191Z,75.13
2022-11-14T03:13:09.073Z,67.70
2022-11-14T03:15:54.483Z,71.83
2022-11-14T03:18:40.682Z,76.30
2022-11-14T03:21:28.907Z,85.65
2022-11-14T03:24:14.403Z,71.72
2022-11-14T03:27:00.157Z,70.07
2022-11-14T03:29:48.427Z,75.97
2022-11-14T03:32:34.334Z,71.25
2022-11-14T03:35:20.397Z,64.47
2022-11-14T03:38:05.889Z,70.00
2022-11-14T03:40:52.300Z,65.93
2022-11-14T03:43:37.977Z,62.22
2022-11-14T03:46:24.763Z,49.67
2022-11-14T03:49:10.015Z,71.70
2022-11-14T03:51:55.861Z,68.35
2022-11-14T03:54:41.381Z,67.43
2022-11-14T03:57:27.006Z,70.15
2022-11-14T04:00:13.656Z,70.80
2022-11-14T04:02:59.449Z,70.07
2022-11-14T04:05:45.803Z,72.80
2022-11-14T04:11:17.710Z,68.65
2022-11-14T04:14:03.534Z,71.40
2022-11-14T04:16:48.844Z,70.67
2022-11-14T04:19:34.813Z,76.30
2022-11-14T04:22:20.424Z,74.85
2022-11-14T04:25:07.436Z,64.28
2022-11-14T04:27:53.094Z,74.22
2022-11-14T04:30:38.797Z,73.47
2022-11-14T04:33:24.352Z,75.13
2022-11-14T04:36:10.058Z,60.20
2022-11-14T04:38:55.481Z,55.17
2022-11-14T04:41:45.897Z,72.68
2022-11-14T04:44:31.700Z,79.93
2022-11-14T04:47:18.036Z,81.93
2022-11-14T04:50:04.737Z,82.18
2022-11-14T04:52:54.034Z,98.00
2022-11-14T04:55:39.736Z,89.18
2022-11-14T04:58:26.601Z,98.13
2022-11-14T05:01:14.185Z,90.18
2022-11-14T05:03:59.753Z,92.80
2022-11-14T05:06:48.381Z,88.78
2022-11-14T05:09:34.454Z,88.30
2022-11-14T05:12:19.823Z,98.33
2022-11-14T05:15:08.487Z,87.22
2022-11-14T05:17:53.865Z,91.75
2022-11-14T05:20:39.481Z,96.53
2022-11-14T05:23:24.790Z,97.60
2022-11-14T05:26:13.394Z,100.63
2022-11-14T05:28:58.823Z,89.38
2022-11-14T05:31:46.881Z,75.30
2022-11-14T05:34:32.482Z,106.55
2022-11-14T05:37:18.073Z,96.55
2022-11-14T05:40:05.358Z,64.13
2022-11-14T05:42:55.107Z,79.80
2022-11-14T05:45:43.025Z,86.25
2022-11-14T05:48:30.411Z,93.18
2022-11-14T05:51:16.085Z,80.25
2022-11-14T05:54:01.971Z,94.00
2022-11-14T05:56:47.566Z,84.57
2022-11-14T05:59:33.480Z,82.15
2022-11-14T06:02:18.948Z,88.07
2022-11-14T06:07:57.748Z,94.20
2022-11-14T06:10:43.219Z,95.03
2022-11-14T06:13:28.706Z,95.88
2022-11-14T06:16:17.140Z,92.00
2022-11-14T06:19:02.408Z,84.70
2022-11-14T06:21:48.201Z,87.88
2022-11-14T06:24:34.010Z,91.45
2022-11-14T06:27:19.689Z,85.00
2022-11-14T06:30:05.937Z,82.95
2022-11-14T06:32:58.232Z,82.05
2022-11-14T06:35:43.518Z,85.75
2022-11-14T06:38:31.890Z,86.03
2022-11-14T06:41:22.145Z,83.90
2022-11-14T06:44:09.221Z,86.82
2022-11-14T06:46:54.865Z,82.05
2022-11-14T06:49:41.038Z,80.70
2022-11-14T06:52:27.312Z,81.88
2022-11-14T06:55:13.414Z,84.85
2022-11-14T06:57:58.998Z,82.35
2022-11-14T07:00:44.834Z,83.60
2022-11-14T07:03:32.660Z,86.70
2022-11-14T07:06:24.022Z,82.10
2022-11-14T07:09:11.038Z,78.60
2022-11-14T07:11:56.717Z,91.32
2022-11-14T07:14:42.340Z,79.80
2022-11-14T07:17:31.592Z,81.68
2022-11-14T07:20:20.399Z,82.25
2022-11-14T07:23:05.860Z,81.68
2022-11-14T07:25:51.609Z,84.15
2022-11-14T07:28:39.458Z,81.75
2022-11-14T07:31:27.129Z,83.55
2022-11-14T07:34:12.858Z,79.85
2022-11-14T07:36:58.680Z,82.20
2022-11-14T07:39:46.156Z,80.85
2022-11-14T07:42:31.956Z,77.43
2022-11-14T07:45:17.812Z,83.07
2022-11-14T07:48:03.602Z,79.90
2022-11-14T07:50:49.511Z,79.82
2022-11-14T07:53:37.471Z,70.90
2022-11-14T07:56:24.149Z,67.82
2022-11-14T07:59:09.686Z,64.93
2022-11-14T08:01:55.458Z,69.57
2022-11-14T08:04:42.264Z,69.30
2022-11-14T08:07:28.373Z,67.18
2022-11-14T08:10:14.359Z,58.83
2022-11-14T08:13:30.271Z,56.10
2022-11-14T08:16:13.645Z,64.00
2022-11-14T08:19:00.361Z,64.10
2022-11-14T08:21:48.327Z,58.33
2022-11-14T08:24:33.837Z,61.35
2022-11-14T08:27:19.414Z,61.80
2022-11-14T08:30:05.655Z,61.47
2022-11-14T08:32:51.592Z,59.33
2022-11-14T08:35:37.686Z,57.28
2022-11-14T08:38:23.305Z,59.58
2022-11-14T08:41:09.144Z,64.00
2022-11-14T08:43:55.058Z,57.20
2022-11-14T08:46:41.006Z,56.17
2022-11-14T08:49:27.206Z,56.72
2022-11-14T08:52:16.660Z,58.58
2022-11-14T08:55:02.742Z,55.42
2022-11-14T08:57:49.880Z,48.88
2022-11-14T09:00:35.658Z,52.67
2022-11-14T09:03:21.754Z,53.05
2022-11-14T09:06:07.370Z,46.45
2022-11-14T09:08:53.216Z,44.63
2022-11-14T09:11:39.008Z,40.78
2022-11-14T09:14:24.766Z,40.17
2022-11-14T09:17:10.136Z,43.10
2022-11-14T09:19:56.156Z,42.10
2022-11-14T09:22:41.894Z,38.90
2022-11-14T09:25:29.307Z,39.63
2022-11-14T09:28:17.195Z,41.50
2022-11-14T09:31:10.583Z,40.83
2022-11-14T09:33:56.001Z,39.13
2022-11-14T09:36:41.987Z,33.97
2022-11-14T09:39:27.762Z,35.88
2022-11-14T09:45:07.351Z,33.45
2022-11-14T09:48:01.482Z,33.70
2022-11-14T09:51:09.662Z,36.53
2022-11-14T09:54:20.085Z,36.10
2022-11-14T09:57:15.480Z,32.80
2022-11-14T10:00:01.724Z,33.13
2022-11-14T10:03:11.256Z,30.30
2022-11-14T10:05:57.509Z,29.27
2022-11-14T10:09:04.656Z,31.90
2022-11-14T10:14:51.558Z,31.33
2022-11-14T10:18:14.847Z,28.65
2022-11-14T10:21:24.723Z,27.92
2022-11-14T10:24:22.682Z,36.15
2022-11-14T10:27:28.225Z,28.73
2022-11-14T10:30:20.065Z,34.22
2022-11-14T10:33:14.818Z,27.77
2022-11-14T10:36:15.443Z,31.67
2022-11-14T10:39:12.072Z,32.60
2022-11-14T10:42:07.717Z,31.40
2022-11-14T10:45:02.558Z,32.15
2022-11-14T10:48:09.113Z,32.53
2022-11-14T10:51:00.242Z,34.30
2022-11-14T10:53:55.511Z,31.88
2022-11-14T10:56:55.112Z,36.15
2022-11-14T10:59:40.683Z,36.28
2022-11-14T11:02:26.377Z,35.08
2022-11-14T11:05:16.554Z,30.00
2022-11-14T11:08:42.609Z,33.10
2022-11-14T11:11:32.398Z,33.13
2022-11-14T11:14:19.749Z,31.83
2022-11-14T11:17:11.813Z,34.58
2022-11-14T11:20:37.353Z,33.85
2022-11-14T11:23:26.843Z,33.15
2022-11-14T11:26:20.407Z,31.70
2022-11-14T11:29:18.327Z,33.05
2022-11-14T11:32:04.514Z,34.28
2022-11-14T11:34:51.678Z,31.92
2022-11-14T11:37:42.217Z,31.48
2022-11-14T11:40:29.737Z,31.05
2022-11-14T11:43:51.292Z,32.47
2022-11-14T11:46:50.560Z,31.80
2022-11-14T11:49:54.399Z,33.53
2022-11-14T11:52:50.377Z,31.92
2022-11-14T11:55:43.679Z,34.65
2022-11-14T11:58:47.822Z,35.40
2022-11-14T12:01:33.596Z,33.00
2022-11-14T12:04:19.797Z,31.95
2022-11-14T12:07:16.902Z,32.05
2022-11-14T12:10:18.113Z,32.65
2022-11-14T12:13:26.953Z,26.70
2022-11-14T12:16:22.235Z,31.40
2022-11-14T12:19:26.472Z,33.10
2022-11-14T12:22:31.278Z,28.17
2022-11-14T12:25:31.654Z,35.90
2022-11-14T12:28:32.716Z,28.45
2022-11-14T12:31:18.801Z,29.65
2022-11-14T12:36:53.571Z,31.75
2022-11-14T12:39:39.650Z,34.33
2022-11-14T12:42:26.111Z,32.30
2022-11-14T12:45:41.070Z,30.00
2022-11-14T12:48:26.618Z,35.50
2022-11-14T12:51:24.946Z,38.25
2022-11-14T12:54:44.673Z,36.15
2022-11-14T12:57:51.827Z,31.77
2022-11-14T13:01:12.540Z,37.08
2022-11-14T13:04:13.813Z,32.63
2022-11-14T13:07:34.709Z,39.70
2022-11-14T13:10:38.927Z,37.25
2022-11-14T13:13:43.096Z,34.65
2022-11-14T13:16:53.247Z,32.50
2022-11-14T13:20:06.567Z,34.47
2022-11-14T13:22:52.403Z,35.80
2022-11-14T13:25:37.997Z,34.00
2022-11-14T13:28:36.192Z,36.10
2022-11-14T13:31:39.368Z,38.63
2022-11-14T13:34:30.698Z,40.20
2022-11-14T13:37:31.809Z,34.35
2022-11-14T13:40:46.928Z,38.50
2022-11-14T13:43:41.912Z,37.40
2022-11-14T13:46:58.095Z,34.58
2022-11-14T13:49:49.558Z,39.17
2022-11-14T13:52:42.245Z,35.03
2022-11-14T13:55:33.788Z,42.55
2022-11-14T13:58:41.742Z,41.75
2022-11-14T14:01:30.364Z,35.85
2022-11-14T14:04:19.166Z,40.60
2022-11-14T14:07:32.756Z,41.08
2022-11-14T14:10:25.023Z,39.30
2022-11-14T14:13:44.597Z,43.60
2022-11-14T14:16:49.989Z,39.80
2022-11-14T14:19:56.647Z,43.08
2022-11-14T14:22:47.552Z,46.88
2022-11-14T14:26:08.595Z,49.08
2022-11-14T14:28:57.552Z,49.08
2022-11-14T14:31:44.158Z,48.17
2022-11-14T14:34:34.336Z,57.03
2022-11-14T14:37:22.878Z,52.10
2022-11-14T14:40:24.759Z,53.92
2022-11-14T14:43:32.716Z,54.45
2022-11-14T14:46:33.465Z,53.85
2022-11-14T14:49:36.246Z,58.00
2022-11-14T14:52:37.774Z,59.60
2022-11-14T14:55:29.155Z,65.10
2022-11-14T14:58:22.735Z,64.65
2022-11-14T15:01:35.720Z,73.30
2022-11-14T15:04:25.516Z,79.25
2022-11-14T15:07:23.970Z,78.00
2022-11-14T15:10:22.215Z,73.90
2022-11-14T15:13:15.666Z,77.50
2022-11-14T15:16:04.231Z,76.72
2022-11-14T15:18:52.555Z,71.60
2022-11-14T15:21:38.745Z,72.35
2022-11-14T15:24:24.836Z,76.20
2022-11-14T15:27:13.677Z,73.43
2022-11-14T15:30:02.857Z,76.35
2022-11-14T15:32:51.281Z,76.95
2022-11-14T15:35:40.449Z,78.13
2022-11-14T15:38:43.547Z,88.75
2022-11-14T15:41:31.990Z,92.18
2022-11-14T15:44:35.746Z,87.32
2022-11-14T15:47:28.914Z,87.13
2022-11-14T15:50:14.884Z,93.28
2022-11-14T15:53:05.993Z,90.78
2022-11-14T15:55:52.378Z,88.63
2022-11-14T15:58:38.054Z,89.35
2022-11-14T16:01:26.313Z,92.30
2022-11-14T16:04:17.394Z,95.20
2022-11-14T16:07:04.117Z,89.38
2022-11-14T16:09:49.873Z,92.13
2022-11-14T16:15:22.259Z,92.50
2022-11-14T16:18:08.134Z,92.15
2022-11-14T16:20:58.753Z,71.85
2022-11-14T16:23:44.435Z,95.10
2022-11-14T16:26:30.422Z,76.70
2022-11-14T16:29:16.733Z,92.30
2022-11-14T16:34:49.201Z,89.00
2022-11-14T16:37:35.050Z,95.80
2022-11-14T16:40:25.643Z,102.93
2022-11-14T16:43:14.078Z,94.25
2022-11-14T16:46:04.611Z,96.55
2022-11-14T16:48:50.511Z,102.35
2022-11-14T16:51:52.244Z,97.35
2022-11-14T16:54:41.061Z,94.82
2022-11-14T16:57:26.828Z,101.80
2022-11-14T17:00:13.064Z,90.07
2022-11-14T17:02:59.569Z,92.07
2022-11-14T17:05:47.897Z,99.55
2022-11-14T17:08:34.308Z,92.00
2022-11-14T17:11:20.148Z,94.38
2022-11-14T17:14:06.072Z,99.40
2022-11-14T17:16:54.567Z,92.97
2022-11-14T17:19:46.328Z,95.18
2022-11-14T17:22:32.065Z,89.13
2022-11-14T17:25:18.510Z,100.28
2022-11-14T17:30:50.114Z,98.82
2022-11-14T17:33:39.784Z,96.28
2022-11-14T17:36:28.532Z,97.75
2022-11-14T17:39:14.719Z,96.53
2022-11-14T17:42:01.324Z,92.07
2022-11-14T17:47:35.485Z,103.82
2022-11-14T17:50:21.623Z,108.53
2022-11-14T17:53:08.163Z,106.57
2022-11-14T17:55:57.538Z,105.20
2022-11-14T17:58:44.596Z,108.78
2022-11-14T18:01:32.046Z,114.60
2022-11-14T18:04:21.724Z,101.63
2022-11-14T18:07:08.733Z,99.55
2022-11-14T18:09:55.426Z,113.22
2022-11-14T18:12:42.205Z,109.70
2022-11-14T18:15:29.174Z,123.68
2022-11-14T18:18:15.728Z,118.47
2022-11-14T18:21:18.176Z,113.22
2022-11-14T18:24:05.208Z,116.05
2022-11-14T18:26:52.018Z,123.30
2022-11-14T18:29:39.601Z,126.90
2022-11-14T18:32:29.815Z,124.03
2022-11-14T18:35:16.971Z,127.53
2022-11-14T18:38:03.899Z,125.40
2022-11-14T18:40:55.863Z,123.65
2022-11-14T18:43:58.289Z,123.00
2022-11-14T18:46:46.217Z,125.00
2022-11-14T18:49:32.960Z,132.18
2022-11-14T18:52:21.816Z,130.32
2022-11-14T18:55:09.284Z,131.10
2022-11-14T18:57:56.071Z,129.05
2022-11-14T19:00:46.448Z,123.43
2022-11-14T19:03:33.570Z,133.52
2022-11-14T19:06:20.656Z,132.52
2022-11-14T19:09:12.019Z,128.15
2022-11-14T19:12:18.261Z,141.75
2022-11-14T19:15:05.378Z,132.40
2022-11-14T19:17:54.176Z,141.38
2022-11-14T19:20:40.923Z,145.93
2022-11-14T19:23:29.460Z,145.02
2022-11-14T19:26:16.997Z,145.25
2022-11-14T19:29:14.429Z,170.75
2022-11-14T19:32:04.231Z,214.30
2022-11-14T19:34:52.240Z,224.35
2022-11-14T19:37:39.309Z,217.88
2022-11-14T19:40:26.877Z,170.13
2022-11-14T19:43:13.676Z,163.25
2022-11-14T19:46:04.704Z,157.07
2022-11-14T19:48:56.424Z,150.15
2022-11-14T19:51:46.767Z,157.98
2022-11-14T19:54:35.718Z,163.38
2022-11-14T19:57:25.078Z,158.10
2022-11-14T20:00:12.468Z,158.13
2022-11-14T20:02:59.884Z,160.23
2022-11-14T20:05:46.420Z,160.18
2022-11-14T20:08:33.424Z,147.95
2022-11-14T20:11:21.152Z,161.05
2022-11-14T20:14:10.416Z,155.70
2022-11-14T20:16:56.935Z,155.07
2022-11-14T20:19:44.625Z,154.95
2022-11-14T20:22:31.269Z,153.75
2022-11-14T20:25:20.788Z,151.40
2022-11-14T20:28:13.543Z,137.73
2022-11-14T20:31:05.149Z,134.57
2022-11-14T20:33:54.821Z,131.35
2022-11-14T20:37:09.290Z,124.25
2022-11-14T20:42:36.328Z,123.25
2022-11-14T20:45:23.607Z,121.00
2022-11-14T20:48:10.792Z,124.55
2022-11-14T20:51:08.612Z,128.02
2022-11-14T20:53:55.822Z,134.43
2022-11-14T20:56:42.713Z,133.68
2022-11-14T20:59:29.881Z,134.45
2022-11-14T21:02:17.465Z,140.02
2022-11-14T21:05:03.991Z,154.00
2022-11-14T21:07:50.344Z,142.50
2022-11-14T21:10:47.211Z,139.35
2022-11-14T21:13:56.340Z,147.88
2022-11-14T21:16:42.636Z,134.30
2022-11-14T21:19:31.479Z,136.95
2022-11-14T21:22:18.269Z,139.35
2022-11-14T21:25:04.978Z,176.27
2022-11-14T21:27:50.966Z,159.65
2022-11-14T21:30:36.527Z,171.48
2022-11-14T21:33:27.010Z,166.10
2022-11-14T21:36:43.283Z,160.02
2022-11-14T21:39:20.414Z,155.15
2022-11-14T21:42:06.070Z,161.52
2022-11-14T21:44:54.251Z,173.40
2022-11-14T21:47:41.980Z,174.77
2022-11-14T21:50:27.507Z,185.93
2022-11-14T21:53:16.242Z,200.18
2022-11-14T21:56:09.456Z,187.73
2022-11-14T21:59:14.584Z,208.18
2022-11-14T22:02:19.430Z,182.02
2022-11-14T22:05:04.935Z,188.48
2022-11-14T22:07:50.880Z,197.77
2022-11-14T22:10:36.160Z,186.48
2022-11-14T22:13:22.047Z,197.18
2022-11-14T22:16:09.014Z,178.73
2022-11-14T22:19:00.436Z,187.88
2022-11-14T22:21:50.699Z,187.63
2022-11-14T22:27:22.199Z,177.77
2022-11-14T22:30:08.662Z,178.80
2022-11-14T22:32:54.082Z,169.95
2022-11-14T22:35:39.748Z,131.40
2022-11-14T22:38:30.312Z,170.50
2022-11-14T22:41:37.249Z,174.27
2022-11-14T22:44:23.036Z,169.50
2022-11-14T22:47:09.022Z,168.27
2022-11-14T22:49:54.496Z,153.25
2022-11-14T22:52:40.162Z,148.80
2022-11-14T22:55:26.114Z,146.77
2022-11-14T22:58:11.639Z,111.07
2022-11-14T23:00:57.311Z,135.18
2022-11-14T23:03:42.970Z,142.85
2022-11-14T23:06:30.548Z,137.75
2022-11-14T23:09:16.126Z,138.32
2022-11-14T23:12:03.837Z,149.48
2022-11-14T23:14:50.044Z,147.98
2022-11-14T23:17:35.698Z,148.85
2022-11-14T23:20:21.817Z,148.82
2022-11-14T23:23:07.390Z,135.13
2022-11-14T23:25:53.680Z,140.00
2022-11-14T23:28:41.516Z,136.10
2022-11-14T23:31:27.578Z,123.78
2022-11-14T23:37:01.318Z,133.60
2022-11-14T23:39:47.133Z,132.55
2022-11-14T23:42:35.092Z,136.95
2022-11-14T23:45:20.873Z,122.55
2022-11-14T23:48:06.544Z,144.02
2022-11-14T23:50:54.507Z,155.68
2022-11-14T23:53:41.015Z,135.32
2022-11-14T23:59:12.523Z,152.18
